sensor_id;sensor_type;location;lat;lon;timestamp;temperature;humidity
23311;DHT22;11828;51.508;18.118;2023-05-14T00:00:57;26.10;34.40
23311;DHT22;11828;51.508;18.118;2023-05-14T00:05:55;26.10;31.90
23311;DHT22;11828;51.508;18.118;2023-05-14T00:08:21;26.20;32.30
23311;DHT22;11828;51.508;18.118;2023-05-14T00:10:47;26.20;34.80
23311;DHT22;11828;51.508;18.118;2023-05-14T00:13:13;26.20;34.70
23311;DHT22;11828;51.508;18.118;2023-05-14T00:15:39;26.10;35.20
23311;DHT22;11828;51.508;18.118;2023-05-14T00:20:32;26.20;32.10
23311;DHT22;11828;51.508;18.118;2023-05-14T00:25:25;26.00;30.00
23311;DHT22;11828;51.508;18.118;2023-05-14T00:30:18;26.40;35.50
23311;DHT22;11828;51.508;18.118;2023-05-14T00:35:10;25.30;31.20
23311;DHT22;11828;51.508;18.118;2023-05-14T00:40:04;25.60;36.70
23311;DHT22;11828;51.508;18.118;2023-05-14T00:44:58;25.20;34.70
23311;DHT22;11828;51.508;18.118;2023-05-14T00:47:24;25.70;35.50
23311;DHT22;11828;51.508;18.118;2023-05-14T00:52:17;25.60;32.00
23311;DHT22;11828;51.508;18.118;2023-05-14T00:54:45;25.50;33.20
23311;DHT22;11828;51.508;18.118;2023-05-14T00:57:11;25.30;33.60
23311;DHT22;11828;51.508;18.118;2023-05-14T00:59:38;25.10;33.70
23311;DHT22;11828;51.508;18.118;2023-05-14T01:04:33;25.60;33.80
23311;DHT22;11828;51.508;18.118;2023-05-14T01:10:50;25.60;31.30
23311;DHT22;11828;51.508;18.118;2023-05-14T01:13:32;25.60;33.20
23311;DHT22;11828;51.508;18.118;2023-05-14T01:16:07;25.90;29.60
23311;DHT22;11828;51.508;18.118;2023-05-14T01:18:38;25.60;36.50
23311;DHT22;11828;51.508;18.118;2023-05-14T01:21:39;26.20;31.50
23311;DHT22;11828;51.508;18.118;2023-05-14T01:24:06;25.30;30.90
23311;DHT22;11828;51.508;18.118;2023-05-14T01:26:33;25.70;31.50
23311;DHT22;11828;51.508;18.118;2023-05-14T01:29:21;25.90;30.30
23311;DHT22;11828;51.508;18.118;2023-05-14T01:31:49;25.50;29.80
23311;DHT22;11828;51.508;18.118;2023-05-14T01:34:19;25.90;30.00
23311;DHT22;11828;51.508;18.118;2023-05-14T01:36:48;26.00;30.20
23311;DHT22;11828;51.508;18.118;2023-05-14T01:39:15;25.90;29.30
23311;DHT22;11828;51.508;18.118;2023-05-14T01:41:43;26.10;30.40
23311;DHT22;11828;51.508;18.118;2023-05-14T01:44:10;26.00;29.70
23311;DHT22;11828;51.508;18.118;2023-05-14T01:46:36;26.10;30.10
23311;DHT22;11828;51.508;18.118;2023-05-14T01:49:02;25.90;30.10
23311;DHT22;11828;51.508;18.118;2023-05-14T01:51:29;26.00;29.90
23311;DHT22;11828;51.508;18.118;2023-05-14T01:53:55;26.00;29.90
23311;DHT22;11828;51.508;18.118;2023-05-14T01:56:22;25.90;30.20
23311;DHT22;11828;51.508;18.118;2023-05-14T01:58:48;26.20;29.90
23311;DHT22;11828;51.508;18.118;2023-05-14T02:01:15;25.90;30.10
23311;DHT22;11828;51.508;18.118;2023-05-14T02:03:41;26.40;30.00
23311;DHT22;11828;51.508;18.118;2023-05-14T02:08:33;26.70;31.70
23311;DHT22;11828;51.508;18.118;2023-05-14T02:13:26;26.00;30.00
23311;DHT22;11828;51.508;18.118;2023-05-14T02:15:53;25.90;31.30
23311;DHT22;11828;51.508;18.118;2023-05-14T02:18:18;25.70;30.70
23311;DHT22;11828;51.508;18.118;2023-05-14T02:20:45;25.70;33.00
23311;DHT22;11828;51.508;18.118;2023-05-14T02:23:11;25.40;31.80
23311;DHT22;11828;51.508;18.118;2023-05-14T02:28:04;25.80;29.90
23311;DHT22;11828;51.508;18.118;2023-05-14T02:32:56;25.60;32.10
23311;DHT22;11828;51.508;18.118;2023-05-14T02:37:49;25.20;34.10
23311;DHT22;11828;51.508;18.118;2023-05-14T02:40:16;25.10;35.90
23311;DHT22;11828;51.508;18.118;2023-05-14T02:42:41;25.00;34.90
23311;DHT22;11828;51.508;18.118;2023-05-14T02:45:08;25.20;34.90
23311;DHT22;11828;51.508;18.118;2023-05-14T02:47:34;24.80;30.80
23311;DHT22;11828;51.508;18.118;2023-05-14T02:50:01;25.10;34.90
23311;DHT22;11828;51.508;18.118;2023-05-14T02:52:27;24.90;37.20
23311;DHT22;11828;51.508;18.118;2023-05-14T02:54:53;25.10;36.40
23311;DHT22;11828;51.508;18.118;2023-05-14T02:57:19;25.10;33.50
23311;DHT22;11828;51.508;18.118;2023-05-14T03:04:48;25.00;35.20
23311;DHT22;11828;51.508;18.118;2023-05-14T03:07:15;25.10;35.60
23311;DHT22;11828;51.508;18.118;2023-05-14T03:19:28;24.80;35.60
23311;DHT22;11828;51.508;18.118;2023-05-14T03:24:21;25.30;34.10
23311;DHT22;11828;51.508;18.118;2023-05-14T03:26:47;24.90;35.70
23311;DHT22;11828;51.508;18.118;2023-05-14T03:29:13;24.90;35.30
23311;DHT22;11828;51.508;18.118;2023-05-14T03:31:43;25.00;29.90
23311;DHT22;11828;51.508;18.118;2023-05-14T03:34:09;25.00;35.20
23311;DHT22;11828;51.508;18.118;2023-05-14T03:36:35;25.30;36.40
23311;DHT22;11828;51.508;18.118;2023-05-14T03:39:03;25.50;36.20
23311;DHT22;11828;51.508;18.118;2023-05-14T03:41:32;25.00;36.00
23311;DHT22;11828;51.508;18.118;2023-05-14T03:43:58;25.20;36.10
23311;DHT22;11828;51.508;18.118;2023-05-14T03:46:25;25.20;32.70
23311;DHT22;11828;51.508;18.118;2023-05-14T03:48:51;25.40;34.10
23311;DHT22;11828;51.508;18.118;2023-05-14T03:51:17;25.70;35.90
23311;DHT22;11828;51.508;18.118;2023-05-14T03:53:43;25.30;35.70
23311;DHT22;11828;51.508;18.118;2023-05-14T03:56:09;25.20;35.40
23311;DHT22;11828;51.508;18.118;2023-05-14T04:03:28;25.00;31.30
23311;DHT22;11828;51.508;18.118;2023-05-14T04:05:55;25.30;32.00
23311;DHT22;11828;51.508;18.118;2023-05-14T04:08:21;24.90;33.50
23311;DHT22;11828;51.508;18.118;2023-05-14T04:10:47;25.00;35.90
23311;DHT22;11828;51.508;18.118;2023-05-14T04:13:14;24.90;35.60
23311;DHT22;11828;51.508;18.118;2023-05-14T04:23:00;24.80;34.30
23311;DHT22;11828;51.508;18.118;2023-05-14T04:25:26;25.00;36.40
23311;DHT22;11828;51.508;18.118;2023-05-14T04:27:52;25.20;36.40
23311;DHT22;11828;51.508;18.118;2023-05-14T04:32:44;25.30;32.80
23311;DHT22;11828;51.508;18.118;2023-05-14T04:37:37;25.80;35.40
23311;DHT22;11828;51.508;18.118;2023-05-14T04:40:05;26.50;30.20
23311;DHT22;11828;51.508;18.118;2023-05-14T04:42:32;25.90;29.50
23311;DHT22;11828;51.508;18.118;2023-05-14T04:44:59;26.10;31.90
23311;DHT22;11828;51.508;18.118;2023-05-14T04:47:25;26.00;33.60
23311;DHT22;11828;51.508;18.118;2023-05-14T04:49:52;26.10;33.40
23311;DHT22;11828;51.508;18.118;2023-05-14T04:52:18;25.80;33.00
23311;DHT22;11828;51.508;18.118;2023-05-14T04:59:37;26.60;33.10
23311;DHT22;11828;51.508;18.118;2023-05-14T05:02:03;26.50;32.60
23311;DHT22;11828;51.508;18.118;2023-05-14T05:04:30;26.60;32.00
23311;DHT22;11828;51.508;18.118;2023-05-14T05:06:56;26.80;31.50
23311;DHT22;11828;51.508;18.118;2023-05-14T05:14:15;27.40;30.60
23311;DHT22;11828;51.508;18.118;2023-05-14T05:16:42;27.20;30.00
23311;DHT22;11828;51.508;18.118;2023-05-14T05:19:08;27.40;29.90
23311;DHT22;11828;51.508;18.118;2023-05-14T05:21:34;27.70;30.10
23311;DHT22;11828;51.508;18.118;2023-05-14T05:24:01;27.40;30.00
23311;DHT22;11828;51.508;18.118;2023-05-14T05:28:53;27.20;30.00
23311;DHT22;11828;51.508;18.118;2023-05-14T05:31:19;27.20;30.60
23311;DHT22;11828;51.508;18.118;2023-05-14T05:33:46;27.40;31.00
23311;DHT22;11828;51.508;18.118;2023-05-14T05:36:12;27.20;30.80
23311;DHT22;11828;51.508;18.118;2023-05-14T05:41:05;27.10;29.30
23311;DHT22;11828;51.508;18.118;2023-05-14T05:43:31;27.50;30.40
23311;DHT22;11828;51.508;18.118;2023-05-14T05:45:59;27.40;30.40
23311;DHT22;11828;51.508;18.118;2023-05-14T05:50:52;27.60;30.20
23311;DHT22;11828;51.508;18.118;2023-05-14T05:53:18;27.60;30.30
23311;DHT22;11828;51.508;18.118;2023-05-14T05:55:44;27.90;30.00
23311;DHT22;11828;51.508;18.118;2023-05-14T06:00:40;28.00;28.40
23311;DHT22;11828;51.508;18.118;2023-05-14T06:05:33;28.20;29.60
23311;DHT22;11828;51.508;18.118;2023-05-14T06:10:25;29.00;28.90
23311;DHT22;11828;51.508;18.118;2023-05-14T06:15:18;29.10;28.10
23311;DHT22;11828;51.508;18.118;2023-05-14T06:17:44;29.40;28.00
23311;DHT22;11828;51.508;18.118;2023-05-14T06:20:11;29.80;27.50
23311;DHT22;11828;51.508;18.118;2023-05-14T06:25:04;30.00;27.00
23311;DHT22;11828;51.508;18.118;2023-05-14T06:27:30;30.50;26.80
23311;DHT22;11828;51.508;18.118;2023-05-14T06:29:56;30.40;26.30
23311;DHT22;11828;51.508;18.118;2023-05-14T06:32:23;30.50;26.70
23311;DHT22;11828;51.508;18.118;2023-05-14T06:34:49;30.90;26.40
23311;DHT22;11828;51.508;18.118;2023-05-14T06:37:15;30.90;26.00
23311;DHT22;11828;51.508;18.118;2023-05-14T06:39:41;31.10;26.60
23311;DHT22;11828;51.508;18.118;2023-05-14T06:42:17;31.30;26.40
23311;DHT22;11828;51.508;18.118;2023-05-14T06:44:44;31.30;25.90
23311;DHT22;11828;51.508;18.118;2023-05-14T06:47:11;31.70;26.00
23311;DHT22;11828;51.508;18.118;2023-05-14T06:49:37;32.10;25.80
23311;DHT22;11828;51.508;18.118;2023-05-14T06:52:04;32.90;25.70
23311;DHT22;11828;51.508;18.118;2023-05-14T06:54:30;33.90;25.00
23311;DHT22;11828;51.508;18.118;2023-05-14T06:56:56;34.70;24.40
23311;DHT22;11828;51.508;18.118;2023-05-14T06:59:22;35.30;23.00
23311;DHT22;11828;51.508;18.118;2023-05-14T07:01:49;35.80;22.50
23311;DHT22;11828;51.508;18.118;2023-05-14T07:04:15;36.40;22.50
23311;DHT22;11828;51.508;18.118;2023-05-14T07:06:41;36.90;22.20
23311;DHT22;11828;51.508;18.118;2023-05-14T07:09:07;37.20;21.10
23311;DHT22;11828;51.508;18.118;2023-05-14T07:11:33;37.30;20.80
23311;DHT22;11828;51.508;18.118;2023-05-14T07:13:59;37.40;20.40
23311;DHT22;11828;51.508;18.118;2023-05-14T07:16:25;37.40;20.00
23311;DHT22;11828;51.508;18.118;2023-05-14T07:18:51;37.20;19.70
23311;DHT22;11828;51.508;18.118;2023-05-14T07:21:18;37.10;19.90
23311;DHT22;11828;51.508;18.118;2023-05-14T07:23:44;37.20;20.40
23311;DHT22;11828;51.508;18.118;2023-05-14T07:26:10;37.50;20.10
23311;DHT22;11828;51.508;18.118;2023-05-14T07:28:36;38.00;20.30
23311;DHT22;11828;51.508;18.118;2023-05-14T07:31:02;38.20;19.00
23311;DHT22;11828;51.508;18.118;2023-05-14T07:33:36;38.30;19.00
23311;DHT22;11828;51.508;18.118;2023-05-14T07:36:03;38.00;18.50
23311;DHT22;11828;51.508;18.118;2023-05-14T07:38:30;38.20;18.90
23311;DHT22;11828;51.508;18.118;2023-05-14T07:40:57;37.90;18.60
23311;DHT22;11828;51.508;18.118;2023-05-14T07:43:23;38.00;19.00
23311;DHT22;11828;51.508;18.118;2023-05-14T07:45:49;38.00;18.80
23311;DHT22;11828;51.508;18.118;2023-05-14T07:48:15;38.40;18.60
23311;DHT22;11828;51.508;18.118;2023-05-14T07:50:42;38.70;19.10
23311;DHT22;11828;51.508;18.118;2023-05-14T07:53:07;39.10;18.70
23311;DHT22;11828;51.508;18.118;2023-05-14T07:55:34;39.30;17.90
23311;DHT22;11828;51.508;18.118;2023-05-14T07:58:00;39.40;17.90
23311;DHT22;11828;51.508;18.118;2023-05-14T08:00:27;39.70;17.80
23311;DHT22;11828;51.508;18.118;2023-05-14T08:02:54;39.50;17.30
23311;DHT22;11828;51.508;18.118;2023-05-14T08:05:20;39.10;17.50
23311;DHT22;11828;51.508;18.118;2023-05-14T08:07:46;38.90;17.90
23311;DHT22;11828;51.508;18.118;2023-05-14T08:10:12;39.00;17.90
23311;DHT22;11828;51.508;18.118;2023-05-14T08:12:38;39.20;17.80
23311;DHT22;11828;51.508;18.118;2023-05-14T08:15:06;39.20;17.60
23311;DHT22;11828;51.508;18.118;2023-05-14T08:17:32;39.20;17.50
23311;DHT22;11828;51.508;18.118;2023-05-14T08:19:58;39.00;17.30
23311;DHT22;11828;51.508;18.118;2023-05-14T08:22:25;38.80;17.30
23311;DHT22;11828;51.508;18.118;2023-05-14T08:24:51;38.70;17.30
23311;DHT22;11828;51.508;18.118;2023-05-14T08:27:17;38.90;17.80
23311;DHT22;11828;51.508;18.118;2023-05-14T08:29:43;39.40;17.50
23311;DHT22;11828;51.508;18.118;2023-05-14T08:32:09;39.90;17.50
23311;DHT22;11828;51.508;18.118;2023-05-14T08:34:36;40.00;17.30
23311;DHT22;11828;51.508;18.118;2023-05-14T08:37:02;40.00;17.00
23311;DHT22;11828;51.508;18.118;2023-05-14T08:39:28;40.40;17.30
23311;DHT22;11828;51.508;18.118;2023-05-14T08:41:56;40.90;17.30
23311;DHT22;11828;51.508;18.118;2023-05-14T08:44:32;41.00;16.80
23311;DHT22;11828;51.508;18.118;2023-05-14T08:47:22;40.70;16.50
23311;DHT22;11828;51.508;18.118;2023-05-14T08:50:00;40.10;17.00
23311;DHT22;11828;51.508;18.118;2023-05-14T08:52:27;39.90;17.20
23311;DHT22;11828;51.508;18.118;2023-05-14T08:54:54;40.00;16.80
23311;DHT22;11828;51.508;18.118;2023-05-14T08:57:22;40.30;17.20
23311;DHT22;11828;51.508;18.118;2023-05-14T08:59:52;40.60;16.80
23311;DHT22;11828;51.508;18.118;2023-05-14T09:02:24;41.00;16.70
23311;DHT22;11828;51.508;18.118;2023-05-14T09:04:55;41.40;16.40
23311;DHT22;11828;51.508;18.118;2023-05-14T09:07:23;41.40;16.40
23311;DHT22;11828;51.508;18.118;2023-05-14T09:09:50;41.20;16.30
23311;DHT22;11828;51.508;18.118;2023-05-14T09:12:17;40.70;16.50
23311;DHT22;11828;51.508;18.118;2023-05-14T09:14:44;40.20;16.80
23311;DHT22;11828;51.508;18.118;2023-05-14T09:17:11;39.60;17.00
23311;DHT22;11828;51.508;18.118;2023-05-14T09:19:42;39.70;17.30
23311;DHT22;11828;51.508;18.118;2023-05-14T09:22:11;39.50;16.70
23311;DHT22;11828;51.508;18.118;2023-05-14T09:24:39;39.40;17.00
23311;DHT22;11828;51.508;18.118;2023-05-14T09:27:05;39.00;17.20
23311;DHT22;11828;51.508;18.118;2023-05-14T09:29:32;38.50;17.40
23311;DHT22;11828;51.508;18.118;2023-05-14T09:31:59;38.10;17.60
23311;DHT22;11828;51.508;18.118;2023-05-14T09:34:32;37.70;18.00
23311;DHT22;11828;51.508;18.118;2023-05-14T09:37:01;37.10;18.20
23311;DHT22;11828;51.508;18.118;2023-05-14T09:39:30;36.80;18.60
23311;DHT22;11828;51.508;18.118;2023-05-14T09:41:57;36.40;18.90
23311;DHT22;11828;51.508;18.118;2023-05-14T09:44:24;36.20;19.10
23311;DHT22;11828;51.508;18.118;2023-05-14T09:46:51;36.20;19.40
23311;DHT22;11828;51.508;18.118;2023-05-14T09:49:18;36.10;19.40
23311;DHT22;11828;51.508;18.118;2023-05-14T09:51:45;36.00;19.30
23311;DHT22;11828;51.508;18.118;2023-05-14T09:54:12;35.70;19.80
23311;DHT22;11828;51.508;18.118;2023-05-14T09:56:38;35.70;19.90
23311;DHT22;11828;51.508;18.118;2023-05-14T09:59:07;35.80;19.90
23311;DHT22;11828;51.508;18.118;2023-05-14T10:01:34;35.80;19.90
23311;DHT22;11828;51.508;18.118;2023-05-14T10:04:02;35.80;20.10
23311;DHT22;11828;51.508;18.118;2023-05-14T10:06:38;35.80;19.90
23311;DHT22;11828;51.508;18.118;2023-05-14T10:09:12;35.80;20.00
23311;DHT22;11828;51.508;18.118;2023-05-14T10:11:46;35.70;20.10
23311;DHT22;11828;51.508;18.118;2023-05-14T10:14:28;35.60;20.20
23311;DHT22;11828;51.508;18.118;2023-05-14T10:17:00;35.70;20.40
23311;DHT22;11828;51.508;18.118;2023-05-14T10:19:32;36.00;20.50
23311;DHT22;11828;51.508;18.118;2023-05-14T10:22:06;36.40;20.10
23311;DHT22;11828;51.508;18.118;2023-05-14T10:24:33;37.10;19.70
23311;DHT22;11828;51.508;18.118;2023-05-14T10:27:00;37.40;18.60
23311;DHT22;11828;51.508;18.118;2023-05-14T10:29:34;37.20;19.00
23311;DHT22;11828;51.508;18.118;2023-05-14T10:32:06;36.70;19.30
23311;DHT22;11828;51.508;18.118;2023-05-14T10:37:14;36.00;19.80
23311;DHT22;11828;51.508;18.118;2023-05-14T10:40:01;35.80;20.20
23311;DHT22;11828;51.508;18.118;2023-05-14T10:42:37;35.70;20.40
23311;DHT22;11828;51.508;18.118;2023-05-14T10:45:12;35.80;20.40
23311;DHT22;11828;51.508;18.118;2023-05-14T10:47:41;35.90;20.60
23311;DHT22;11828;51.508;18.118;2023-05-14T10:50:10;36.20;20.50
23311;DHT22;11828;51.508;18.118;2023-05-14T10:52:40;36.30;20.20
23311;DHT22;11828;51.508;18.118;2023-05-14T10:55:08;36.10;19.80
23311;DHT22;11828;51.508;18.118;2023-05-14T10:57:39;35.50;20.00
23311;DHT22;11828;51.508;18.118;2023-05-14T11:00:11;35.50;20.30
23311;DHT22;11828;51.508;18.118;2023-05-14T11:02:40;35.50;20.50
23311;DHT22;11828;51.508;18.118;2023-05-14T11:05:12;35.30;20.30
23311;DHT22;11828;51.508;18.118;2023-05-14T11:07:42;35.30;20.60
23311;DHT22;11828;51.508;18.118;2023-05-14T11:10:13;35.30;20.70
23311;DHT22;11828;51.508;18.118;2023-05-14T11:12:45;35.50;20.10
23311;DHT22;11828;51.508;18.118;2023-05-14T11:15:17;35.60;20.10
23311;DHT22;11828;51.508;18.118;2023-05-14T11:17:46;35.60;20.60
23311;DHT22;11828;51.508;18.118;2023-05-14T11:20:13;35.70;20.60
23311;DHT22;11828;51.508;18.118;2023-05-14T11:22:41;36.20;20.80
23311;DHT22;11828;51.508;18.118;2023-05-14T11:25:09;36.60;20.40
23311;DHT22;11828;51.508;18.118;2023-05-14T11:27:37;36.80;20.20
23311;DHT22;11828;51.508;18.118;2023-05-14T11:30:04;36.50;20.00
23311;DHT22;11828;51.508;18.118;2023-05-14T11:32:36;36.30;20.20
23311;DHT22;11828;51.508;18.118;2023-05-14T11:35:03;36.30;20.00
23311;DHT22;11828;51.508;18.118;2023-05-14T11:37:29;36.40;20.00
23311;DHT22;11828;51.508;18.118;2023-05-14T11:39:59;36.30;20.20
23311;DHT22;11828;51.508;18.118;2023-05-14T11:42:26;35.90;20.30
23311;DHT22;11828;51.508;18.118;2023-05-14T11:44:52;36.10;20.70
23311;DHT22;11828;51.508;18.118;2023-05-14T11:47:20;36.30;20.70
23311;DHT22;11828;51.508;18.118;2023-05-14T11:49:48;36.60;20.30
23311;DHT22;11828;51.508;18.118;2023-05-14T11:52:15;36.50;20.10
23311;DHT22;11828;51.508;18.118;2023-05-14T11:54:44;36.20;20.00
23311;DHT22;11828;51.508;18.118;2023-05-14T11:57:12;36.10;20.50
23311;DHT22;11828;51.508;18.118;2023-05-14T11:59:41;36.60;20.80
23311;DHT22;11828;51.508;18.118;2023-05-14T12:02:11;37.10;19.90
23311;DHT22;11828;51.508;18.118;2023-05-14T12:04:39;37.20;19.40
23311;DHT22;11828;51.508;18.118;2023-05-14T12:07:11;37.60;19.30
23311;DHT22;11828;51.508;18.118;2023-05-14T12:09:46;38.10;19.10
23311;DHT22;11828;51.508;18.118;2023-05-14T12:12:21;38.40;19.00
23311;DHT22;11828;51.508;18.118;2023-05-14T12:14:48;38.40;18.90
23311;DHT22;11828;51.508;18.118;2023-05-14T12:17:20;38.00;18.90
23311;DHT22;11828;51.508;18.118;2023-05-14T12:19:48;37.60;18.90
23311;DHT22;11828;51.508;18.118;2023-05-14T12:22:17;37.30;19.10
23311;DHT22;11828;51.508;18.118;2023-05-14T12:24:57;36.90;19.40
23311;DHT22;11828;51.508;18.118;2023-05-14T12:27:26;36.60;19.50
23311;DHT22;11828;51.508;18.118;2023-05-14T12:30:01;36.20;19.50
23311;DHT22;11828;51.508;18.118;2023-05-14T12:32:32;36.20;19.70
23311;DHT22;11828;51.508;18.118;2023-05-14T12:34:59;36.00;19.60
23311;DHT22;11828;51.508;18.118;2023-05-14T12:37:26;35.90;19.60
23311;DHT22;11828;51.508;18.118;2023-05-14T12:39:52;35.90;19.90
23311;DHT22;11828;51.508;18.118;2023-05-14T12:42:18;35.70;20.00
23311;DHT22;11828;51.508;18.118;2023-05-14T12:44:45;35.70;19.80
23311;DHT22;11828;51.508;18.118;2023-05-14T12:47:11;35.70;20.30
23311;DHT22;11828;51.508;18.118;2023-05-14T12:52:04;35.70;19.70
23311;DHT22;11828;51.508;18.118;2023-05-14T12:54:31;35.90;20.00
23311;DHT22;11828;51.508;18.118;2023-05-14T12:56:58;35.90;19.90
23311;DHT22;11828;51.508;18.118;2023-05-14T12:59:24;36.00;19.80
23311;DHT22;11828;51.508;18.118;2023-05-14T13:01:50;36.00;19.90
23311;DHT22;11828;51.508;18.118;2023-05-14T13:04:17;36.10;20.20
23311;DHT22;11828;51.508;18.118;2023-05-14T13:06:43;36.00;20.30
23311;DHT22;11828;51.508;18.118;2023-05-14T13:09:09;35.90;20.50
23311;DHT22;11828;51.508;18.118;2023-05-14T13:11:35;36.00;20.50
23311;DHT22;11828;51.508;18.118;2023-05-14T13:14:01;35.90;20.30
23311;DHT22;11828;51.508;18.118;2023-05-14T13:16:29;35.80;20.40
23311;DHT22;11828;51.508;18.118;2023-05-14T13:18:55;35.60;20.10
23311;DHT22;11828;51.508;18.118;2023-05-14T13:21:21;35.60;20.30
23311;DHT22;11828;51.508;18.118;2023-05-14T13:23:48;35.70;20.60
23311;DHT22;11828;51.508;18.118;2023-05-14T13:26:14;35.80;20.70
23311;DHT22;11828;51.508;18.118;2023-05-14T13:28:41;35.80;20.80
23311;DHT22;11828;51.508;18.118;2023-05-14T13:31:09;35.50;20.80
23311;DHT22;11828;51.508;18.118;2023-05-14T13:33:41;35.50;20.90
23311;DHT22;11828;51.508;18.118;2023-05-14T13:36:08;35.20;20.90
23311;DHT22;11828;51.508;18.118;2023-05-14T13:38:37;35.00;21.00
23311;DHT22;11828;51.508;18.118;2023-05-14T13:41:03;35.00;21.00
23311;DHT22;11828;51.508;18.118;2023-05-14T13:43:34;34.90;20.90
23311;DHT22;11828;51.508;18.118;2023-05-14T13:46:01;34.90;21.20
23311;DHT22;11828;51.508;18.118;2023-05-14T13:48:28;34.90;21.30
23311;DHT22;11828;51.508;18.118;2023-05-14T13:50:55;34.80;21.20
23311;DHT22;11828;51.508;18.118;2023-05-14T13:53:23;34.80;21.10
23311;DHT22;11828;51.508;18.118;2023-05-14T13:55:49;35.00;21.30
23311;DHT22;11828;51.508;18.118;2023-05-14T13:58:25;34.90;21.10
23311;DHT22;11828;51.508;18.118;2023-05-14T14:00:51;34.90;20.90
23311;DHT22;11828;51.508;18.118;2023-05-14T14:03:19;34.80;21.00
23311;DHT22;11828;51.508;18.118;2023-05-14T14:05:45;34.70;21.10
23311;DHT22;11828;51.508;18.118;2023-05-14T14:08:11;34.60;21.10
23311;DHT22;11828;51.508;18.118;2023-05-14T14:10:37;34.50;21.10
23311;DHT22;11828;51.508;18.118;2023-05-14T14:13:06;34.50;21.40
23311;DHT22;11828;51.508;18.118;2023-05-14T14:15:32;34.50;21.40
23311;DHT22;11828;51.508;18.118;2023-05-14T14:17:58;34.40;21.50
23311;DHT22;11828;51.508;18.118;2023-05-14T14:20:24;34.40;21.60
23311;DHT22;11828;51.508;18.118;2023-05-14T14:22:50;34.40;21.70
23311;DHT22;11828;51.508;18.118;2023-05-14T14:25:16;34.50;21.70
23311;DHT22;11828;51.508;18.118;2023-05-14T14:27:42;34.50;21.50
23311;DHT22;11828;51.508;18.118;2023-05-14T14:30:10;34.60;21.70
23311;DHT22;11828;51.508;18.118;2023-05-14T14:32:47;34.70;21.50
23311;DHT22;11828;51.508;18.118;2023-05-14T14:35:16;34.50;21.40
23311;DHT22;11828;51.508;18.118;2023-05-14T14:37:43;34.50;21.40
23311;DHT22;11828;51.508;18.118;2023-05-14T14:40:14;34.50;21.60
23311;DHT22;11828;51.508;18.118;2023-05-14T14:42:42;34.40;21.60
23311;DHT22;11828;51.508;18.118;2023-05-14T14:45:08;34.30;21.80
23311;DHT22;11828;51.508;18.118;2023-05-14T14:47:35;34.40;21.90
23311;DHT22;11828;51.508;18.118;2023-05-14T14:50:01;34.40;21.80
23311;DHT22;11828;51.508;18.118;2023-05-14T14:52:27;34.30;21.80
23311;DHT22;11828;51.508;18.118;2023-05-14T14:54:54;34.30;21.80
23311;DHT22;11828;51.508;18.118;2023-05-14T14:57:20;34.30;21.90
23311;DHT22;11828;51.508;18.118;2023-05-14T14:59:47;34.20;21.80
23311;DHT22;11828;51.508;18.118;2023-05-14T15:02:13;34.40;21.90
23311;DHT22;11828;51.508;18.118;2023-05-14T15:04:40;34.30;21.70
23311;DHT22;11828;51.508;18.118;2023-05-14T15:07:06;34.40;21.70
23311;DHT22;11828;51.508;18.118;2023-05-14T15:09:32;34.30;21.60
23311;DHT22;11828;51.508;18.118;2023-05-14T15:11:58;34.30;21.40
23311;DHT22;11828;51.508;18.118;2023-05-14T15:14:24;34.40;21.40
23311;DHT22;11828;51.508;18.118;2023-05-14T15:16:51;34.30;21.50
23311;DHT22;11828;51.508;18.118;2023-05-14T15:19:18;34.30;21.60
23311;DHT22;11828;51.508;18.118;2023-05-14T15:21:44;34.10;21.10
23311;DHT22;11828;51.508;18.118;2023-05-14T15:24:11;34.10;21.50
23311;DHT22;11828;51.508;18.118;2023-05-14T15:26:40;34.10;21.40
23311;DHT22;11828;51.508;18.118;2023-05-14T15:29:06;33.90;21.30
23311;DHT22;11828;51.508;18.118;2023-05-14T15:31:32;33.90;21.40
23311;DHT22;11828;51.508;18.118;2023-05-14T15:33:59;33.80;21.50
23311;DHT22;11828;51.508;18.118;2023-05-14T15:36:25;33.80;21.70
23311;DHT22;11828;51.508;18.118;2023-05-14T15:38:51;33.80;21.70
23311;DHT22;11828;51.508;18.118;2023-05-14T15:41:18;33.80;21.80
23311;DHT22;11828;51.508;18.118;2023-05-14T15:43:44;33.70;22.40
23311;DHT22;11828;51.508;18.118;2023-05-14T15:46:10;33.80;21.90
23311;DHT22;11828;51.508;18.118;2023-05-14T15:48:36;33.80;21.80
23311;DHT22;11828;51.508;18.118;2023-05-14T15:51:02;33.80;21.90
23311;DHT22;11828;51.508;18.118;2023-05-14T15:53:29;33.80;21.50
23311;DHT22;11828;51.508;18.118;2023-05-14T15:55:55;33.80;21.40
23311;DHT22;11828;51.508;18.118;2023-05-14T15:58:21;34.00;21.50
23311;DHT22;11828;51.508;18.118;2023-05-14T16:00:47;34.10;21.50
23311;DHT22;11828;51.508;18.118;2023-05-14T16:03:13;34.30;21.40
23311;DHT22;11828;51.508;18.118;2023-05-14T16:05:39;34.40;21.30
23311;DHT22;11828;51.508;18.118;2023-05-14T16:08:07;34.50;21.20
23311;DHT22;11828;51.508;18.118;2023-05-14T16:10:33;34.70;21.20
23311;DHT22;11828;51.508;18.118;2023-05-14T16:12:59;34.70;21.10
23311;DHT22;11828;51.508;18.118;2023-05-14T16:15:25;34.90;21.20
23311;DHT22;11828;51.508;18.118;2023-05-14T16:17:52;34.90;21.10
23311;DHT22;11828;51.508;18.118;2023-05-14T16:20:18;34.90;21.20
23311;DHT22;11828;51.508;18.118;2023-05-14T16:22:44;34.90;21.20
23311;DHT22;11828;51.508;18.118;2023-05-14T16:25:10;34.90;21.20
23311;DHT22;11828;51.508;18.118;2023-05-14T16:27:37;34.90;21.30
23311;DHT22;11828;51.508;18.118;2023-05-14T16:30:03;34.90;21.40
23311;DHT22;11828;51.508;18.118;2023-05-14T16:32:30;34.80;21.30
23311;DHT22;11828;51.508;18.118;2023-05-14T16:34:56;34.90;21.40
23311;DHT22;11828;51.508;18.118;2023-05-14T16:37:22;34.80;21.50
23311;DHT22;11828;51.508;18.118;2023-05-14T16:39:48;34.80;21.50
23311;DHT22;11828;51.508;18.118;2023-05-14T16:42:14;34.80;21.60
23311;DHT22;11828;51.508;18.118;2023-05-14T16:44:40;34.70;21.40
23311;DHT22;11828;51.508;18.118;2023-05-14T16:47:07;34.70;21.60
23311;DHT22;11828;51.508;18.118;2023-05-14T16:49:33;34.60;21.70
23311;DHT22;11828;51.508;18.118;2023-05-14T16:51:59;34.60;21.80
23311;DHT22;11828;51.508;18.118;2023-05-14T16:54:25;34.60;21.90
23311;DHT22;11828;51.508;18.118;2023-05-14T16:56:51;34.50;21.90
23311;DHT22;11828;51.508;18.118;2023-05-14T16:59:17;34.50;22.00
23311;DHT22;11828;51.508;18.118;2023-05-14T17:01:44;34.40;21.90
23311;DHT22;11828;51.508;18.118;2023-05-14T17:04:12;34.40;22.00